sensor_id;sensor_type;location;lat;lon;timestamp;P1;durP1;ratioP1;P2;durP2;ratioP2
27999;SDS011;15328;50.860;10.562;2024-03-06T00:00:48;49.70;;;27.95;;
27999;SDS011;15328;50.860;10.562;2024-03-06T00:05:49;51.22;;;29.05;;
27999;SDS011;15328;50.860;10.562;2024-03-06T00:10:49;43.97;;;25.25;;
27999;SDS011;15328;50.860;10.562;2024-03-06T00:15:49;42.90;;;25.03;;
27999;SDS011;15328;50.860;10.562;2024-03-06T00:20:50;48.25;;;27.58;;
27999;SDS011;15328;50.860;10.562;2024-03-06T00:25:50;50.53;;;27.33;;
27999;SDS011;15328;50.860;10.562;2024-03-06T00:30:50;50.30;;;27.63;;
27999;SDS011;15328;50.860;10.562;2024-03-06T00:35:51;47.35;;;27.42;;
27999;SDS011;15328;50.860;10.562;2024-03-06T00:40:51;44.73;;;25.93;;
27999;SDS011;15328;50.860;10.562;2024-03-06T00:45:52;46.75;;;27.08;;
27999;SDS011;15328;50.860;10.562;2024-03-06T00:50:52;47.00;;;26.45;;
27999;SDS011;15328;50.860;10.562;2024-03-06T00:55:52;48.13;;;26.57;;
27999;SDS011;15328;50.860;10.562;2024-03-06T01:00:53;46.88;;;26.20;;
27999;SDS011;15328;50.860;10.562;2024-03-06T01:05:54;47.33;;;26.83;;
27999;SDS011;15328;50.860;10.562;2024-03-06T01:10:55;48.33;;;27.60;;
27999;SDS011;15328;50.860;10.562;2024-03-06T01:15:55;45.77;;;27.00;;
27999;SDS011;15328;50.860;10.562;2024-03-06T01:20:55;47.17;;;27.83;;
27999;SDS011;15328;50.860;10.562;2024-03-06T01:25:56;45.40;;;26.50;;
27999;SDS011;15328;50.860;10.562;2024-03-06T01:30:56;50.77;;;29.40;;
27999;SDS011;15328;50.860;10.562;2024-03-06T01:35:58;47.00;;;28.10;;
27999;SDS011;15328;50.860;10.562;2024-03-06T01:40:59;47.80;;;28.35;;
27999;SDS011;15328;50.860;10.562;2024-03-06T01:45:59;46.33;;;26.33;;
27999;SDS011;15328;50.860;10.562;2024-03-06T01:51:01;45.17;;;26.23;;
27999;SDS011;15328;50.860;10.562;2024-03-06T01:56:04;53.03;;;29.33;;
27999;SDS011;15328;50.860;10.562;2024-03-06T02:01:05;46.03;;;27.05;;
27999;SDS011;15328;50.860;10.562;2024-03-06T02:06:06;45.65;;;26.33;;
27999;SDS011;15328;50.860;10.562;2024-03-06T02:11:09;43.83;;;27.30;;
27999;SDS011;15328;50.860;10.562;2024-03-06T02:16:10;47.78;;;27.73;;
27999;SDS011;15328;50.860;10.562;2024-03-06T02:21:11;44.85;;;26.95;;
27999;SDS011;15328;50.860;10.562;2024-03-06T02:26:12;46.13;;;26.80;;
27999;SDS011;15328;50.860;10.562;2024-03-06T02:31:12;43.28;;;25.15;;
27999;SDS011;15328;50.860;10.562;2024-03-06T02:36:16;48.00;;;27.77;;
27999;SDS011;15328;50.860;10.562;2024-03-06T02:41:17;48.10;;;27.92;;
27999;SDS011;15328;50.860;10.562;2024-03-06T02:46:17;49.88;;;27.85;;
27999;SDS011;15328;50.860;10.562;2024-03-06T02:51:18;43.63;;;24.70;;
27999;SDS011;15328;50.860;10.562;2024-03-06T02:56:19;45.50;;;26.20;;
27999;SDS011;15328;50.860;10.562;2024-03-06T03:01:20;50.13;;;28.50;;
27999;SDS011;15328;50.860;10.562;2024-03-06T03:06:20;53.00;;;30.10;;
27999;SDS011;15328;50.860;10.562;2024-03-06T03:11:21;60.40;;;32.55;;
27999;SDS011;15328;50.860;10.562;2024-03-06T03:16:21;60.67;;;33.07;;
27999;SDS011;15328;50.860;10.562;2024-03-06T03:21:21;65.30;;;34.67;;
27999;SDS011;15328;50.860;10.562;2024-03-06T03:26:22;63.63;;;34.42;;
27999;SDS011;15328;50.860;10.562;2024-03-06T03:31:22;57.20;;;32.33;;
27999;SDS011;15328;50.860;10.562;2024-03-06T03:36:23;60.35;;;33.05;;
27999;SDS011;15328;50.860;10.562;2024-03-06T03:41:24;68.20;;;35.92;;
27999;SDS011;15328;50.860;10.562;2024-03-06T03:46:25;64.43;;;33.13;;
27999;SDS011;15328;50.860;10.562;2024-03-06T03:51:25;63.70;;;33.92;;
27999;SDS011;15328;50.860;10.562;2024-03-06T03:56:26;71.30;;;35.67;;
27999;SDS011;15328;50.860;10.562;2024-03-06T04:01:27;67.22;;;34.92;;
27999;SDS011;15328;50.860;10.562;2024-03-06T04:06:27;68.60;;;36.03;;
27999;SDS011;15328;50.860;10.562;2024-03-06T04:11:28;70.90;;;36.33;;
27999;SDS011;15328;50.860;10.562;2024-03-06T04:16:29;71.00;;;35.28;;
27999;SDS011;15328;50.860;10.562;2024-03-06T04:21:30;71.20;;;36.33;;
27999;SDS011;15328;50.860;10.562;2024-03-06T04:26:30;69.00;;;34.78;;
27999;SDS011;15328;50.860;10.562;2024-03-06T04:31:30;66.90;;;34.30;;
27999;SDS011;15328;50.860;10.562;2024-03-06T04:36:31;68.88;;;36.78;;
27999;SDS011;15328;50.860;10.562;2024-03-06T04:41:31;66.40;;;36.22;;
27999;SDS011;15328;50.860;10.562;2024-03-06T04:46:31;71.90;;;36.27;;
27999;SDS011;15328;50.860;10.562;2024-03-06T04:51:32;67.47;;;36.08;;
27999;SDS011;15328;50.860;10.562;2024-03-06T04:56:32;62.70;;;33.10;;
27999;SDS011;15328;50.860;10.562;2024-03-06T05:01:34;65.72;;;32.92;;
27999;SDS011;15328;50.860;10.562;2024-03-06T05:06:34;67.90;;;36.60;;
27999;SDS011;15328;50.860;10.562;2024-03-06T05:11:34;66.97;;;36.40;;
27999;SDS011;15328;50.860;10.562;2024-03-06T05:16:36;65.00;;;34.45;;
27999;SDS011;15328;50.860;10.562;2024-03-06T05:21:37;62.60;;;34.35;;
27999;SDS011;15328;50.860;10.562;2024-03-06T05:26:37;66.18;;;35.28;;
27999;SDS011;15328;50.860;10.562;2024-03-06T05:31:38;71.37;;;38.77;;
27999;SDS011;15328;50.860;10.562;2024-03-06T05:36:38;65.13;;;35.30;;
27999;SDS011;15328;50.860;10.562;2024-03-06T05:41:39;69.45;;;33.97;;
27999;SDS011;15328;50.860;10.562;2024-03-06T05:46:40;64.68;;;34.38;;
27999;SDS011;15328;50.860;10.562;2024-03-06T05:51:40;69.05;;;36.35;;
27999;SDS011;15328;50.860;10.562;2024-03-06T05:56:41;69.20;;;36.17;;
27999;SDS011;15328;50.860;10.562;2024-03-06T06:01:42;68.60;;;36.45;;
27999;SDS011;15328;50.860;10.562;2024-03-06T06:06:42;64.13;;;34.67;;
27999;SDS011;15328;50.860;10.562;2024-03-06T06:11:43;67.75;;;35.33;;
27999;SDS011;15328;50.860;10.562;2024-03-06T06:16:44;58.70;;;32.80;;
27999;SDS011;15328;50.860;10.562;2024-03-06T06:21:44;58.60;;;30.50;;
27999;SDS011;15328;50.860;10.562;2024-03-06T06:26:46;61.42;;;31.60;;
27999;SDS011;15328;50.860;10.562;2024-03-06T06:31:47;56.55;;;30.73;;
27999;SDS011;15328;50.860;10.562;2024-03-06T06:36:47;61.55;;;33.25;;
27999;SDS011;15328;50.860;10.562;2024-03-06T06:41:47;57.03;;;31.80;;
27999;SDS011;15328;50.860;10.562;2024-03-06T06:46:48;68.10;;;33.90;;
27999;SDS011;15328;50.860;10.562;2024-03-06T06:51:48;61.57;;;33.27;;
27999;SDS011;15328;50.860;10.562;2024-03-06T06:56:49;66.28;;;32.50;;
27999;SDS011;15328;50.860;10.562;2024-03-06T07:01:49;69.07;;;35.50;;
27999;SDS011;15328;50.860;10.562;2024-03-06T07:06:50;64.50;;;32.08;;
27999;SDS011;15328;50.860;10.562;2024-03-06T07:11:50;59.42;;;29.90;;
27999;SDS011;15328;50.860;10.562;2024-03-06T07:16:52;55.38;;;30.15;;
27999;SDS011;15328;50.860;10.562;2024-03-06T07:21:52;55.77;;;29.87;;
27999;SDS011;15328;50.860;10.562;2024-03-06T07:26:53;64.75;;;31.27;;
27999;SDS011;15328;50.860;10.562;2024-03-06T07:31:53;55.33;;;29.97;;
27999;SDS011;15328;50.860;10.562;2024-03-06T07:36:54;57.70;;;30.70;;
27999;SDS011;15328;50.860;10.562;2024-03-06T07:41:54;58.70;;;30.40;;
27999;SDS011;15328;50.860;10.562;2024-03-06T07:46:54;58.40;;;30.20;;
27999;SDS011;15328;50.860;10.562;2024-03-06T07:51:55;55.27;;;29.80;;
27999;SDS011;15328;50.860;10.562;2024-03-06T07:56:57;50.22;;;27.98;;
27999;SDS011;15328;50.860;10.562;2024-03-06T08:01:57;56.97;;;28.50;;
27999;SDS011;15328;50.860;10.562;2024-03-06T08:06:57;52.93;;;27.73;;
27999;SDS011;15328;50.860;10.562;2024-03-06T08:11:58;52.42;;;27.13;;
27999;SDS011;15328;50.860;10.562;2024-03-06T08:16:59;52.83;;;27.70;;
27999;SDS011;15328;50.860;10.562;2024-03-06T08:21:59;50.03;;;27.67;;
27999;SDS011;15328;50.860;10.562;2024-03-06T08:27:01;56.92;;;29.77;;
27999;SDS011;15328;50.860;10.562;2024-03-06T08:32:02;50.78;;;28.38;;
27999;SDS011;15328;50.860;10.562;2024-03-06T08:37:03;54.65;;;28.92;;
27999;SDS011;15328;50.860;10.562;2024-03-06T08:42:04;64.55;;;32.35;;
27999;SDS011;15328;50.860;10.562;2024-03-06T08:47:05;62.38;;;32.67;;
27999;SDS011;15328;50.860;10.562;2024-03-06T08:52:05;65.80;;;33.78;;
27999;SDS011;15328;50.860;10.562;2024-03-06T08:57:06;66.00;;;33.65;;
27999;SDS011;15328;50.860;10.562;2024-03-06T09:02:13;64.20;;;32.13;;
27999;SDS011;15328;50.860;10.562;2024-03-06T09:07:18;67.38;;;34.15;;
27999;SDS011;15328;50.860;10.562;2024-03-06T09:12:20;60.88;;;32.60;;
27999;SDS011;15328;50.860;10.562;2024-03-06T09:17:20;57.42;;;32.97;;
27999;SDS011;15328;50.860;10.562;2024-03-06T09:22:20;59.17;;;33.90;;
27999;SDS011;15328;50.860;10.562;2024-03-06T09:27:21;53.53;;;30.85;;
27999;SDS011;15328;50.860;10.562;2024-03-06T09:32:21;56.97;;;31.73;;
27999;SDS011;15328;50.860;10.562;2024-03-06T09:37:22;56.15;;;32.20;;
27999;SDS011;15328;50.860;10.562;2024-03-06T09:42:22;52.45;;;29.02;;
27999;SDS011;15328;50.860;10.562;2024-03-06T09:47:23;51.97;;;29.80;;
27999;SDS011;15328;50.860;10.562;2024-03-06T09:52:27;57.83;;;31.83;;
27999;SDS011;15328;50.860;10.562;2024-03-06T09:57:28;56.70;;;31.90;;
27999;SDS011;15328;50.860;10.562;2024-03-06T10:02:38;59.80;;;32.42;;
27999;SDS011;15328;50.860;10.562;2024-03-06T10:07:46;61.15;;;31.52;;
27999;SDS011;15328;50.860;10.562;2024-03-06T10:12:46;61.33;;;34.63;;
27999;SDS011;15328;50.860;10.562;2024-03-06T10:17:47;67.38;;;35.85;;
27999;SDS011;15328;50.860;10.562;2024-03-06T10:22:49;67.05;;;36.53;;
27999;SDS011;15328;50.860;10.562;2024-03-06T10:33:10;62.22;;;34.30;;
27999;SDS011;15328;50.860;10.562;2024-03-06T10:38:11;71.75;;;37.40;;
27999;SDS011;15328;50.860;10.562;2024-03-06T10:43:12;68.60;;;36.55;;
27999;SDS011;15328;50.860;10.562;2024-03-06T10:48:13;59.83;;;34.10;;
27999;SDS011;15328;50.860;10.562;2024-03-06T10:53:16;68.07;;;36.80;;
27999;SDS011;15328;50.860;10.562;2024-03-06T10:58:17;65.70;;;36.63;;
27999;SDS011;15328;50.860;10.562;2024-03-06T11:03:19;67.13;;;35.90;;
27999;SDS011;15328;50.860;10.562;2024-03-06T11:08:19;69.83;;;38.20;;
27999;SDS011;15328;50.860;10.562;2024-03-06T11:23:30;73.07;;;38.85;;
27999;SDS011;15328;50.860;10.562;2024-03-06T11:28:32;62.10;;;35.13;;
27999;SDS011;15328;50.860;10.562;2024-03-06T11:33:38;60.42;;;33.97;;
27999;SDS011;15328;50.860;10.562;2024-03-06T11:38:40;63.40;;;36.78;;
27999;SDS011;15328;50.860;10.562;2024-03-06T11:43:44;58.10;;;34.80;;
27999;SDS011;15328;50.860;10.562;2024-03-06T11:48:51;56.10;;;31.90;;
27999;SDS011;15328;50.860;10.562;2024-03-06T11:53:52;53.45;;;30.05;;
27999;SDS011;15328;50.860;10.562;2024-03-06T11:58:53;53.10;;;30.17;;
27999;SDS011;15328;50.860;10.562;2024-03-06T12:03:54;58.47;;;33.47;;
27999;SDS011;15328;50.860;10.562;2024-03-06T12:08:54;56.95;;;33.50;;
27999;SDS011;15328;50.860;10.562;2024-03-06T12:13:55;58.70;;;35.13;;
27999;SDS011;15328;50.860;10.562;2024-03-06T12:18:56;63.10;;;36.80;;
27999;SDS011;15328;50.860;10.562;2024-03-06T12:24:04;52.95;;;31.75;;
27999;SDS011;15328;50.860;10.562;2024-03-06T12:29:05;51.53;;;31.23;;
27999;SDS011;15328;50.860;10.562;2024-03-06T12:34:13;45.22;;;28.95;;
27999;SDS011;15328;50.860;10.562;2024-03-06T12:39:15;50.25;;;29.55;;
27999;SDS011;15328;50.860;10.562;2024-03-06T12:44:23;44.53;;;28.57;;
27999;SDS011;15328;50.860;10.562;2024-03-06T12:49:23;47.70;;;29.00;;
27999;SDS011;15328;50.860;10.562;2024-03-06T12:54:23;46.20;;;28.83;;
27999;SDS011;15328;50.860;10.562;2024-03-06T12:59:24;44.60;;;26.90;;
27999;SDS011;15328;50.860;10.562;2024-03-06T13:04:24;40.20;;;25.92;;
27999;SDS011;15328;50.860;10.562;2024-03-06T13:09:25;41.70;;;26.42;;
27999;SDS011;15328;50.860;10.562;2024-03-06T13:14:25;39.78;;;24.60;;
27999;SDS011;15328;50.860;10.562;2024-03-06T13:19:25;48.40;;;28.40;;
27999;SDS011;15328;50.860;10.562;2024-03-06T13:24:25;45.23;;;27.63;;
27999;SDS011;15328;50.860;10.562;2024-03-06T13:29:26;43.40;;;27.25;;
27999;SDS011;15328;50.860;10.562;2024-03-06T13:34:26;41.70;;;26.25;;
27999;SDS011;15328;50.860;10.562;2024-03-06T13:39:27;41.53;;;25.40;;
27999;SDS011;15328;50.860;10.562;2024-03-06T13:44:27;39.20;;;25.33;;
27999;SDS011;15328;50.860;10.562;2024-03-06T13:49:37;40.58;;;25.27;;
27999;SDS011;15328;50.860;10.562;2024-03-06T13:54:42;40.75;;;25.02;;
27999;SDS011;15328;50.860;10.562;2024-03-06T13:59:42;37.03;;;22.92;;
27999;SDS011;15328;50.860;10.562;2024-03-06T14:04:43;40.30;;;24.13;;
27999;SDS011;15328;50.860;10.562;2024-03-06T14:09:43;34.63;;;22.33;;
27999;SDS011;15328;50.860;10.562;2024-03-06T14:14:44;34.30;;;21.90;;
27999;SDS011;15328;50.860;10.562;2024-03-06T14:19:47;35.78;;;23.02;;
27999;SDS011;15328;50.860;10.562;2024-03-06T14:24:47;37.47;;;21.93;;
27999;SDS011;15328;50.860;10.562;2024-03-06T14:29:48;34.47;;;22.10;;
27999;SDS011;15328;50.860;10.562;2024-03-06T14:34:48;36.15;;;21.83;;
27999;SDS011;15328;50.860;10.562;2024-03-06T14:39:49;34.42;;;20.83;;
27999;SDS011;15328;50.860;10.562;2024-03-06T14:44:51;31.02;;;20.42;;
27999;SDS011;15328;50.860;10.562;2024-03-06T14:49:51;35.20;;;21.80;;
27999;SDS011;15328;50.860;10.562;2024-03-06T14:54:51;41.00;;;25.17;;
27999;SDS011;15328;50.860;10.562;2024-03-06T14:59:52;36.83;;;23.90;;
27999;SDS011;15328;50.860;10.562;2024-03-06T15:04:52;36.13;;;23.13;;
27999;SDS011;15328;50.860;10.562;2024-03-06T15:09:53;33.17;;;21.98;;
27999;SDS011;15328;50.860;10.562;2024-03-06T15:14:53;34.63;;;21.13;;
27999;SDS011;15328;50.860;10.562;2024-03-06T15:19:56;33.35;;;21.08;;
27999;SDS011;15328;50.860;10.562;2024-03-06T15:24:57;32.80;;;21.50;;
27999;SDS011;15328;50.860;10.562;2024-03-06T15:29:57;39.37;;;24.07;;
27999;SDS011;15328;50.860;10.562;2024-03-06T15:34:57;38.83;;;24.27;;
27999;SDS011;15328;50.860;10.562;2024-03-06T15:39:58;32.60;;;21.58;;
27999;SDS011;15328;50.860;10.562;2024-03-06T15:44:59;29.10;;;19.83;;
27999;SDS011;15328;50.860;10.562;2024-03-06T15:49:59;30.65;;;20.48;;
27999;SDS011;15328;50.860;10.562;2024-03-06T15:54:59;31.17;;;20.67;;
27999;SDS011;15328;50.860;10.562;2024-03-06T16:00:00;34.38;;;22.05;;
27999;SDS011;15328;50.860;10.562;2024-03-06T16:05:00;33.65;;;22.48;;
27999;SDS011;15328;50.860;10.562;2024-03-06T16:10:01;36.40;;;23.63;;
27999;SDS011;15328;50.860;10.562;2024-03-06T16:15:02;33.90;;;20.40;;
27999;SDS011;15328;50.860;10.562;2024-03-06T16:20:06;29.95;;;19.48;;
27999;SDS011;15328;50.860;10.562;2024-03-06T16:25:07;32.30;;;20.83;;
27999;SDS011;15328;50.860;10.562;2024-03-06T16:30:08;32.55;;;20.23;;
27999;SDS011;15328;50.860;10.562;2024-03-06T16:35:09;33.17;;;20.17;;
27999;SDS011;15328;50.860;10.562;2024-03-06T16:40:10;31.15;;;19.60;;
27999;SDS011;15328;50.860;10.562;2024-03-06T16:45:10;27.08;;;18.15;;
27999;SDS011;15328;50.860;10.562;2024-03-06T16:50:11;27.52;;;18.15;;
27999;SDS011;15328;50.860;10.562;2024-03-06T16:55:15;28.73;;;19.33;;
27999;SDS011;15328;50.860;10.562;2024-03-06T17:00:16;31.00;;;20.70;;
27999;SDS011;15328;50.860;10.562;2024-03-06T17:05:17;29.27;;;19.45;;
27999;SDS011;15328;50.860;10.562;2024-03-06T17:10:18;31.75;;;19.30;;
27999;SDS011;15328;50.860;10.562;2024-03-06T17:15:18;31.40;;;19.08;;
27999;SDS011;15328;50.860;10.562;2024-03-06T17:20:19;33.13;;;19.83;;
27999;SDS011;15328;50.860;10.562;2024-03-06T17:25:20;30.77;;;19.02;;
27999;SDS011;15328;50.860;10.562;2024-03-06T17:30:20;30.52;;;19.55;;
27999;SDS011;15328;50.860;10.562;2024-03-06T17:35:22;30.95;;;18.85;;
27999;SDS011;15328;50.860;10.562;2024-03-06T17:40:22;33.40;;;18.17;;
27999;SDS011;15328;50.860;10.562;2024-03-06T17:45:25;29.88;;;18.05;;
27999;SDS011;15328;50.860;10.562;2024-03-06T17:50:26;29.90;;;18.73;;
27999;SDS011;15328;50.860;10.562;2024-03-06T17:55:26;34.40;;;20.08;;
27999;SDS011;15328;50.860;10.562;2024-03-06T18:00:27;29.50;;;18.42;;
27999;SDS011;15328;50.860;10.562;2024-03-06T18:05:27;31.45;;;19.48;;
27999;SDS011;15328;50.860;10.562;2024-03-06T18:10:31;30.07;;;19.60;;
27999;SDS011;15328;50.860;10.562;2024-03-06T18:15:33;29.98;;;19.65;;
27999;SDS011;15328;50.860;10.562;2024-03-06T18:20:33;33.50;;;20.42;;
27999;SDS011;15328;50.860;10.562;2024-03-06T18:25:33;30.98;;;18.58;;
27999;SDS011;15328;50.860;10.562;2024-03-06T18:30:34;35.50;;;20.33;;
27999;SDS011;15328;50.860;10.562;2024-03-06T18:35:34;36.57;;;21.23;;
27999;SDS011;15328;50.860;10.562;2024-03-06T18:40:37;36.58;;;22.33;;
27999;SDS011;15328;50.860;10.562;2024-03-06T18:45:38;32.08;;;19.75;;
27999;SDS011;15328;50.860;10.562;2024-03-06T18:50:38;32.65;;;20.58;;
27999;SDS011;15328;50.860;10.562;2024-03-06T18:55:39;31.10;;;18.87;;
27999;SDS011;15328;50.860;10.562;2024-03-06T19:00:39;28.33;;;18.17;;
27999;SDS011;15328;50.860;10.562;2024-03-06T19:05:39;29.87;;;18.30;;
27999;SDS011;15328;50.860;10.562;2024-03-06T19:10:39;30.17;;;18.02;;
27999;SDS011;15328;50.860;10.562;2024-03-06T19:15:40;29.27;;;18.05;;
27999;SDS011;15328;50.860;10.562;2024-03-06T19:20:40;30.35;;;18.63;;
27999;SDS011;15328;50.860;10.562;2024-03-06T19:25:40;30.53;;;18.60;;
27999;SDS011;15328;50.860;10.562;2024-03-06T19:30:41;30.92;;;18.65;;
27999;SDS011;15328;50.860;10.562;2024-03-06T19:35:42;29.87;;;17.73;;
27999;SDS011;15328;50.860;10.562;2024-03-06T19:40:42;29.02;;;17.77;;
27999;SDS011;15328;50.860;10.562;2024-03-06T19:45:43;29.23;;;18.33;;
27999;SDS011;15328;50.860;10.562;2024-03-06T19:50:43;31.20;;;18.80;;
27999;SDS011;15328;50.860;10.562;2024-03-06T19:55:46;32.60;;;19.33;;
27999;SDS011;15328;50.860;10.562;2024-03-06T20:00:48;31.38;;;18.40;;
27999;SDS011;15328;50.860;10.562;2024-03-06T20:05:48;31.08;;;18.63;;
27999;SDS011;15328;50.860;10.562;2024-03-06T20:10:48;29.03;;;18.00;;
27999;SDS011;15328;50.860;10.562;2024-03-06T20:15:49;28.13;;;17.60;;
27999;SDS011;15328;50.860;10.562;2024-03-06T20:20:49;27.30;;;17.00;;
27999;SDS011;15328;50.860;10.562;2024-03-06T20:25:49;27.67;;;16.63;;
27999;SDS011;15328;50.860;10.562;2024-03-06T20:30:50;26.63;;;15.95;;
27999;SDS011;15328;50.860;10.562;2024-03-06T20:35:52;25.55;;;15.98;;
27999;SDS011;15328;50.860;10.562;2024-03-06T20:40:53;23.30;;;15.35;;
27999;SDS011;15328;50.860;10.562;2024-03-06T20:45:53;24.23;;;15.07;;
27999;SDS011;15328;50.860;10.562;2024-03-06T20:50:54;24.48;;;14.85;;
27999;SDS011;15328;50.860;10.562;2024-03-06T20:55:55;22.77;;;14.07;;
27999;SDS011;15328;50.860;10.562;2024-03-06T21:00:55;20.65;;;13.57;;
27999;SDS011;15328;50.860;10.562;2024-03-06T21:05:56;21.70;;;13.10;;
27999;SDS011;15328;50.860;10.562;2024-03-06T21:10:56;23.77;;;14.50;;
27999;SDS011;15328;50.860;10.562;2024-03-06T21:15:58;22.25;;;13.48;;
27999;SDS011;15328;50.860;10.562;2024-03-06T21:20:59;21.17;;;13.27;;
27999;SDS011;15328;50.860;10.562;2024-03-06T21:26:00;23.10;;;13.23;;
27999;SDS011;15328;50.860;10.562;2024-03-06T21:31:00;25.05;;;14.20;;
27999;SDS011;15328;50.860;10.562;2024-03-06T21:36:01;23.02;;;13.68;;
27999;SDS011;15328;50.860;10.562;2024-03-06T21:41:01;22.63;;;12.70;;
27999;SDS011;15328;50.860;10.562;2024-03-06T21:46:02;21.45;;;13.48;;
27999;SDS011;15328;50.860;10.562;2024-03-06T21:51:02;20.98;;;13.23;;
27999;SDS011;15328;50.860;10.562;2024-03-06T21:56:03;22.17;;;14.05;;
27999;SDS011;15328;50.860;10.562;2024-03-06T22:01:04;23.40;;;14.45;;
27999;SDS011;15328;50.860;10.562;2024-03-06T22:06:04;25.35;;;14.75;;
27999;SDS011;15328;50.860;10.562;2024-03-06T22:11:05;22.92;;;13.55;;
27999;SDS011;15328;50.860;10.562;2024-03-06T22:16:11;24.73;;;14.63;;
27999;SDS011;15328;50.860;10.562;2024-03-06T22:21:12;24.17;;;15.25;;
27999;SDS011;15328;50.860;10.562;2024-03-06T22:26:13;25.00;;;14.23;;
27999;SDS011;15328;50.860;10.562;2024-03-06T22:31:14;23.42;;;14.55;;
27999;SDS011;15328;50.860;10.562;2024-03-06T22:36:15;24.25;;;14.95;;
27999;SDS011;15328;50.860;10.562;2024-03-06T22:41:16;24.75;;;14.82;;
27999;SDS011;15328;50.860;10.562;2024-03-06T22:46:23;26.98;;;14.50;;
27999;SDS011;15328;50.860;10.562;2024-03-06T22:51:23;23.20;;;13.63;;
27999;SDS011;15328;50.860;10.562;2024-03-06T22:56:23;25.52;;;15.40;;
27999;SDS011;15328;50.860;10.562;2024-03-06T23:01:24;25.17;;;14.70;;
27999;SDS011;15328;50.860;10.562;2024-03-06T23:06:24;25.48;;;14.57;;
27999;SDS011;15328;50.860;10.562;2024-03-06T23:11:25;28.40;;;16.53;;
27999;SDS011;15328;50.860;10.562;2024-03-06T23:16:25;25.83;;;14.63;;
27999;SDS011;15328;50.860;10.562;2024-03-06T23:21:25;25.47;;;14.73;;
27999;SDS011;15328;50.860;10.562;2024-03-06T23:26:26;26.90;;;15.53;;
27999;SDS011;15328;50.860;10.562;2024-03-06T23:31:26;27.58;;;16.00;;
27999;SDS011;15328;50.860;10.562;2024-03-06T23:36:27;27.67;;;16.35;;
27999;SDS011;15328;50.860;10.562;2024-03-06T23:41:27;26.30;;;15.90;;
27999;SDS011;15328;50.860;10.562;2024-03-06T23:46:28;28.33;;;16.20;;
27999;SDS011;15328;50.860;10.562;2024-03-06T23:51:29;26.83;;;15.63;;
27999;SDS011;15328;50.860;10.562;2024-03-06T23:56:29;26.83;;;15.80;;
